Time;durP1;ratioP1;P1;durP2;ratioP2;P2;SDS_P1;SDS_P2;PMS_P1;PMS_P2;Temp;Humidity;BMP_temperature;BMP_pressure;BME280_temperature;BME280_humidity;BME280_pressure;Samples;Min_cycle;Max_cycle;Signal;HPM_P1;HPM_P2
2022/05/27 00:02:02;;;;;;;2.15;1.23;;;17.90;63.90;;;;;;5086585;28;20056;-73
2022/05/27 00:04:28;;;;;;;2.92;1.30;;;17.90;64.00;;;;;;5070206;28;20119;-73
2022/05/27 00:06:54;;;;;;;3.78;1.50;;;17.90;64.10;;;;;;5070219;28;20095;-73
2022/05/27 00:09:23;;;;;;;3.53;1.55;;;17.90;64.10;;;;;;5069546;28;20119;-72
2022/05/27 00:11:49;;;;;;;2.72;1.23;;;17.90;64.20;;;;;;5064849;28;20028;-72
2022/05/27 00:14:15;;;;;;;4.30;2.00;;;17.90;64.30;;;;;;5071780;28;20243;-73
2022/05/27 00:16:41;;;;;;;6.88;1.73;;;17.80;64.20;;;;;;5076042;28;20033;-73
2022/05/27 00:19:06;;;;;;;2.83;1.67;;;17.80;64.20;;;;;;5067432;28;20184;-73
2022/05/27 00:21:32;;;;;;;3.35;1.30;;;17.80;64.20;;;;;;5068313;28;20047;-72
2022/05/27 00:24:00;;;;;;;1.67;1.17;;;17.80;64.30;;;;;;5066502;28;20401;-72
2022/05/27 00:26:27;;;;;;;2.80;1.20;;;17.80;64.30;;;;;;5074288;28;20365;-73
2022/05/27 00:28:53;;;;;;;1.52;0.90;;;17.80;64.40;;;;;;5050945;28;20481;-73
2022/05/27 00:31:20;;;;;;;2.53;1.02;;;17.80;64.40;;;;;;5069315;28;20043;-73
2022/05/27 00:33:47;;;;;;;3.53;1.55;;;17.80;64.40;;;;;;5068798;28;20029;-73
2022/05/27 00:36:14;;;;;;;2.92;1.73;;;17.80;64.40;;;;;;5067789;28;20029;-74
2022/05/27 00:38:42;;;;;;;3.67;1.45;;;17.80;64.50;;;;;;5066923;28;20107;-73
2022/05/27 00:41:09;;;;;;;2.30;1.20;;;17.70;64.30;;;;;;5058949;28;20044;-73
2022/05/27 00:43:36;;;;;;;3.00;1.30;;;17.70;64.40;;;;;;5064302;28;20159;-74
2022/05/27 00:46:13;;;;;;;2.10;1.30;;;17.70;64.40;;;;;;5066874;28;20036;-74
2022/05/27 00:48:41;;;;;;;2.25;1.17;;;17.70;64.50;;;;;;5056401;28;20530;-74
2022/05/27 00:51:22;;;;;;;4.60;1.40;;;17.70;64.50;;;;;;5064703;28;20043;-74
2022/05/27 00:54:12;;;;;;;1.95;1.02;;;17.70;64.60;;;;;;5060475;28;20037;-74
2022/05/27 00:56:40;;;;;;;2.13;1.35;;;17.70;64.60;;;;;;5066304;28;20533;-74
2022/05/27 00:59:21;;;;;;;1.35;0.90;;;17.70;64.60;;;;;;5066276;28;20041;-73
2022/05/27 01:01:47;;;;;;;2.45;1.40;;;17.70;64.60;;;;;;5060309;28;20512;-73
2022/05/27 01:04:13;;;;;;;2.33;1.15;;;17.60;64.90;;;;;;5065993;28;20028;-73
2022/05/27 01:06:38;;;;;;;2.05;1.23;;;17.60;64.40;;;;;;5067647;28;20613;-72
2022/05/27 01:09:05;;;;;;;2.05;1.23;;;17.60;64.50;;;;;;5063572;28;20020;-73
2022/05/27 01:11:40;;;;;;;3.53;1.75;;;17.60;65.10;;;;;;5062843;28;20025;-74
2022/05/27 01:14:34;;;;;;;2.63;1.50;;;17.60;64.60;;;;;;5063709;28;20349;-72
2022/05/27 01:17:18;;;;;;;2.35;1.40;;;17.60;64.60;;;;;;5066095;28;20054;-73
2022/05/27 01:20:22;;;;;;;1.42;1.20;;;17.50;64.50;;;;;;5062730;28;20569;-73
2022/05/27 01:23:09;;;;;;;2.75;1.30;;;17.60;64.70;;;;;;5057385;28;20066;-73
2022/05/27 01:26:17;;;;;;;1.55;1.40;;;17.50;64.50;;;;;;5061331;28;20029;-73
2022/05/27 01:28:46;;;;;;;4.25;1.95;;;17.50;64.70;;;;;;5053043;28;20066;-74
2022/05/27 01:31:39;;;;;;;3.50;1.38;;;17.50;64.50;;;;;;5065922;28;20040;-74
2022/05/27 01:34:43;;;;;;;2.13;1.10;;;17.50;64.70;;;;;;5073449;28;20500;-73
2022/05/27 01:37:29;;;;;;;2.50;1.50;;;17.50;64.70;;;;;;5065959;28;20112;-73
2022/05/27 01:40:06;;;;;;;2.60;1.40;;;17.50;64.60;;;;;;5065942;28;20554;-73
2022/05/27 01:42:46;;;;;;;4.20;2.40;;;17.50;64.70;;;;;;5064003;28;20033;-73
2022/05/27 01:45:26;;;;;;;2.20;1.20;;;17.50;64.70;;;;;;5065457;28;20033;-73
2022/05/27 01:48:08;;;;;;;3.08;2.10;;;17.50;64.80;;;;;;5075182;28;20116;-73
2022/05/27 01:50:43;;;;;;;4.10;2.08;;;17.50;64.80;;;;;;5069535;28;20032;-73
2022/05/27 01:53:33;;;;;;;2.05;1.67;;;17.40;64.60;;;;;;5065367;28;20202;-74
2022/05/27 01:56:03;;;;;;;1.75;1.25;;;17.50;64.80;;;;;;5043807;28;20121;-74
2022/05/27 01:58:29;;;;;;;3.47;2.28;;;17.50;64.80;;;;;;5074293;28;20636;-74
2022/05/27 02:00:55;;;;;;;5.25;1.83;;;17.40;64.70;;;;;;5066826;28;20028;-74
2022/05/27 02:03:24;;;;;;;3.20;1.75;;;17.40;64.80;;;;;;5066066;28;20485;-74
2022/05/27 02:06:25;;;;;;;2.55;2.35;;;17.40;64.90;;;;;;5075480;28;20396;-74
2022/05/27 02:09:04;;;;;;;4.47;3.35;;;17.40;64.90;;;;;;5066147;28;20716;-74
2022/05/27 02:11:31;;;;;;;3.65;2.58;;;17.40;64.90;;;;;;5058389;28;20055;-74
2022/05/27 02:14:06;;;;;;;3.15;2.10;;;17.40;64.90;;;;;;5065588;28;20060;-74
2022/05/27 02:16:38;;;;;;;4.93;3.30;;;17.40;64.90;;;;;;5065842;28;20064;-74
2022/05/27 02:19:10;;;;;;;3.42;2.08;;;17.40;64.90;;;;;;5058775;28;20036;-73
2022/05/27 02:21:51;;;;;;;3.45;3.13;;;17.40;65.00;;;;;;5070709;28;20452;-73
2022/05/27 02:24:36;;;;;;;3.00;2.60;;;17.40;65.10;;;;;;5063131;28;20087;-73
2022/05/27 02:27:24;;;;;;;3.80;2.85;;;17.30;64.90;;;;;;5062928;28;20056;-73
2022/05/27 02:29:53;;;;;;;4.13;2.97;;;17.30;65.00;;;;;;5064750;28;20029;-73
2022/05/27 02:32:25;;;;;;;5.82;3.78;;;17.30;64.90;;;;;;5071670;28;20127;-74
2022/05/27 02:35:08;;;;;;;5.18;3.03;;;17.30;65.00;;;;;;5073174;28;20031;-74
2022/05/27 02:37:44;;;;;;;4.38;2.85;;;17.30;65.00;;;;;;5065070;28;20036;-73
2022/05/27 02:40:16;;;;;;;3.83;2.95;;;17.20;65.00;;;;;;5062706;28;20400;-73
2022/05/27 02:42:42;;;;;;;5.10;3.60;;;17.20;65.00;;;;;;5065058;28;20028;-73
2022/05/27 02:45:31;;;;;;;4.47;2.78;;;17.20;65.00;;;;;;5065507;28;20025;-73
2022/05/27 02:48:20;;;;;;;4.55;3.10;;;17.20;65.00;;;;;;5064302;28;20086;-74
2022/05/27 02:51:24;;;;;;;4.70;3.63;;;17.20;65.10;;;;;;5059698;28;20025;-74
2022/05/27 02:54:14;;;;;;;5.53;3.60;;;17.20;65.10;;;;;;5062231;28;20089;-72
2022/05/27 02:57:07;;;;;;;4.15;2.88;;;17.20;65.10;;;;;;5055685;28;20059;-73
2022/05/27 02:59:34;;;;;;;;;;;17.20;65.10;;;;;;5070713;28;20529;-73
2022/05/27 03:02:10;;;;;;;4.05;3.08;;;17.20;65.00;;;;;;5078105;28;19926;-73
2022/05/27 03:04:41;;;;;;;4.15;3.60;;;17.10;64.80;;;;;;5068707;28;20032;-73
2022/05/27 03:07:21;;;;;;;4.93;3.80;;;17.10;64.90;;;;;;5062958;28;20143;-73
2022/05/27 03:09:56;;;;;;;3.85;3.38;;;17.10;65.10;;;;;;5051899;28;20025;-73
2022/05/27 03:12:44;;;;;;;4.80;4.28;;;17.10;65.10;;;;;;5065784;28;20052;-73
2022/05/27 03:15:19;;;;;;;5.40;4.05;;;17.00;65.00;;;;;;5064515;28;20040;-73
2022/05/27 03:17:58;;;;;;;5.28;3.72;;;17.00;65.10;;;;;;5069279;28;20036;-73
2022/05/27 03:21:03;;;;;;;5.75;4.55;;;17.00;65.10;;;;;;5066558;28;20549;-74
2022/05/27 03:24:06;;;;;;;5.05;4.20;;;17.00;65.30;;;;;;5068045;28;20463;-74
2022/05/27 03:26:54;;;;;;;5.82;4.55;;;16.90;65.10;;;;;;5064371;28;20045;-73
2022/05/27 03:29:20;;;;;;;4.60;4.03;;;16.90;65.20;;;;;;5060902;28;20035;-74
2022/05/27 03:31:54;;;;;;;5.72;4.45;;;16.80;65.00;;;;;;5067303;28;20055;-73
2022/05/27 03:34:35;;;;;;;4.75;4.30;;;16.80;65.10;;;;;;5083078;28;20044;-72
2022/05/27 03:37:06;;;;;;;5.43;4.18;;;16.80;65.20;;;;;;5072409;28;20038;-74
2022/05/27 03:39:52;;;;;;;6.05;4.13;;;16.70;65.10;;;;;;5068439;28;20033;-73
2022/05/27 03:42:19;;;;;;;6.20;4.18;;;16.70;65.30;;;;;;5067772;28;20038;-73
2022/05/27 03:44:51;;;;;;;5.85;4.68;;;16.60;65.10;;;;;;5074047;28;20036;-73
2022/05/27 03:47:16;;;;;;;5.07;4.55;;;16.60;65.20;;;;;;5071649;28;20426;-73
2022/05/27 03:49:42;;;;;;;6.53;4.18;;;16.60;65.20;;;;;;5073322;28;20198;-73
2022/05/27 03:52:15;;;;;;;6.07;4.82;;;16.60;65.30;;;;;;5074813;28;20097;-74
2022/05/27 03:54:41;;;;;;;4.97;4.13;;;16.50;65.20;;;;;;5066287;28;20312;-75
2022/05/27 03:57:07;;;;;;;5.68;4.63;;;16.50;65.30;;;;;;5074989;28;20597;-73
2022/05/27 03:59:33;;;;;;;5.05;4.20;;;16.40;65.10;;;;;;5072092;28;20043;-74
2022/05/27 04:01:59;;;;;;;4.93;4.22;;;16.40;65.20;;;;;;5071920;28;20044;-74
2022/05/27 04:04:28;;;;;;;8.57;5.03;;;16.40;65.30;;;;;;5062420;28;20013;-74
2022/05/27 04:06:54;;;;;;;4.75;3.90;;;16.30;65.30;;;;;;5078347;28;20464;-74
2022/05/27 04:09:23;;;;;;;4.78;4.15;;;16.30;65.20;;;;;;5066379;28;20032;-73
2022/05/27 04:11:50;;;;;;;6.05;4.22;;;16.30;65.30;;;;;;5070131;28;20959;-73
2022/05/27 04:14:16;;;;;;;4.50;3.33;;;16.20;65.10;;;;;;5078940;28;20041;-73
2022/05/27 04:16:42;;;;;;;5.50;3.78;;;16.20;65.20;;;;;;5067520;28;20028;-73
2022/05/27 04:19:09;;;;;;;4.85;3.42;;;16.20;65.30;;;;;;5064545;28;20059;-73
2022/05/27 04:21:36;;;;;;;6.13;3.50;;;16.20;65.30;;;;;;5070235;28;20029;-73
2022/05/27 04:24:02;;;;;;;5.00;4.03;;;16.10;65.10;;;;;;5068792;28;20059;-73
2022/05/27 04:26:28;;;;;;;4.45;4.00;;;16.00;65.00;;;;;;5070417;28;20245;-73
2022/05/27 04:28:54;;;;;;;5.75;3.83;;;16.00;65.00;;;;;;5069972;28;20029;-73
2022/05/27 04:31:20;;;;;;;4.88;3.63;;;16.00;65.10;;;;;;5078428;28;20021;-74
2022/05/27 04:33:46;;;;;;;5.32;3.20;;;15.90;65.00;;;;;;5074271;28;20024;-72
2022/05/27 04:36:14;;;;;;;5.43;3.50;;;15.90;65.00;;;;;;5072258;28;20328;-73
2022/05/27 04:38:41;;;;;;;5.70;3.15;;;15.80;64.90;;;;;;5068735;28;20138;-72
2022/05/27 04:41:07;;;;;;;6.07;3.33;;;15.80;64.90;;;;;;5066503;28;20084;-73
2022/05/27 04:43:34;;;;;;;6.38;3.60;;;15.80;65.00;;;;;;5065452;28;20124;-73
2022/05/27 04:46:00;;;;;;;4.72;3.42;;;15.70;64.80;;;;;;5067599;28;20123;-73
2022/05/27 04:48:27;;;;;;;5.10;3.00;;;15.70;64.80;;;;;;5061490;28;20036;-74
2022/05/27 04:50:53;;;;;;;4.35;3.00;;;15.70;64.80;;;;;;5066911;28;20040;-73
2022/05/27 04:53:19;;;;;;;6.93;3.13;;;15.60;64.70;;;;;;5065508;28;20032;-73
2022/05/27 04:55:45;;;;;;;8.57;2.90;;;15.60;64.80;;;;;;5066911;28;20055;-73
2022/05/27 04:58:12;;;;;;;4.35;2.53;;;15.60;64.70;;;;;;5084706;28;20761;-74
2022/05/27 05:00:44;;;;;;;5.05;2.75;;;15.60;64.60;;;;;;5061226;28;20033;-73
2022/05/27 05:03:11;;;;;;;6.78;2.75;;;15.60;64.70;;;;;;5063572;28;20102;-74
2022/05/27 05:05:37;;;;;;;5.25;2.33;;;15.60;64.60;;;;;;5069763;28;20112;-73
2022/05/27 05:08:16;;;;;;;3.60;2.22;;;15.50;64.40;;;;;;5036889;28;20048;-73
2022/05/27 05:10:42;;;;;;;5.95;2.17;;;15.60;64.60;;;;;;5059742;28;20112;-74
2022/05/27 05:13:08;;;;;;;6.63;2.88;;;15.50;64.40;;;;;;5061327;28;20046;-73
2022/05/27 05:15:34;;;;;;;3.85;2.25;;;15.50;64.40;;;;;;5059434;28;20461;-74
2022/05/27 05:17:59;;;;;;;4.45;2.95;;;15.50;64.40;;;;;;5058434;28;20059;-74
2022/05/27 05:20:29;;;;;;;3.90;2.45;;;15.50;64.40;;;;;;5061404;28;20507;-76
2022/05/27 05:22:56;;;;;;;5.30;2.50;;;15.50;64.30;;;;;;5062118;28;20116;-74
2022/05/27 05:25:23;;;;;;;4.85;2.30;;;15.50;64.30;;;;;;5060013;28;20035;-75
2022/05/27 05:27:50;;;;;;;4.55;1.90;;;15.50;64.20;;;;;;5059062;28;20028;-74
2022/05/27 05:30:19;;;;;;;4.35;1.85;;;15.50;64.20;;;;;;5059112;28;20032;-76
2022/05/27 05:32:45;;;;;;;3.55;2.00;;;15.50;64.10;;;;;;5059836;28;20027;-75
2022/05/27 05:35:15;;;;;;;5.25;2.38;;;15.50;64.10;;;;;;5057916;28;20032;-74
2022/05/27 05:37:42;;;;;;;4.45;2.13;;;15.50;64.10;;;;;;5072751;28;20025;-74
2022/05/27 05:40:10;;;;;;;6.68;2.60;;;15.50;64.00;;;;;;5061506;28;20391;-74
2022/05/27 05:42:36;;;;;;;5.10;1.80;;;15.50;64.10;;;;;;5056823;28;20074;-74
2022/05/27 05:45:03;;;;;;;6.80;2.22;;;15.60;64.20;;;;;;5067510;28;20115;-76
2022/05/27 05:47:30;;;;;;;4.18;2.08;;;15.60;64.10;;;;;;5057542;28;20135;-75
2022/05/27 05:49:56;;;;;;;7.15;2.90;;;15.60;64.00;;;;;;5064606;28;20496;-75
2022/05/27 05:52:22;;;;;;;7.47;2.15;;;15.70;64.10;;;;;;5065439;28;20190;-75
2022/05/27 05:54:48;;;;;;;6.00;2.00;;;15.70;64.00;;;;;;5066183;28;20111;-77
2022/05/27 05:57:14;;;;;;;4.88;2.35;;;15.70;63.90;;;;;;5066432;28;20111;-75
2022/05/27 05:59:40;;;;;;;4.28;2.35;;;15.80;63.90;;;;;;5068477;28;20126;-75
2022/05/27 06:02:07;;;;;;;8.48;2.05;;;15.80;63.70;;;;;;5065722;28;20422;-75
2022/05/27 06:04:35;;;;;;;5.43;2.33;;;15.90;63.80;;;;;;5059712;28;20032;-77
2022/05/27 06:07:01;;;;;;;5.18;2.33;;;16.00;63.80;;;;;;5069805;28;20048;-80
2022/05/27 06:09:27;;;;;;;7.38;2.20;;;16.10;64.30;;;;;;5062452;28;20047;-77
2022/05/27 06:11:56;;;;;;;7.88;3.20;;;16.30;65.80;;;;;;5064803;28;20436;-76
2022/05/27 06:14:22;;;;;;;5.70;2.40;;;16.50;66.70;;;;;;5062977;28;20492;-75
2022/05/27 06:16:49;;;;;;;6.97;2.20;;;16.80;67.10;;;;;;5064862;28;20025;-75
2022/05/27 06:19:16;;;;;;;6.90;2.05;;;17.00;67.10;;;;;;5046855;28;20040;-73
2022/05/27 06:21:43;;;;;;;9.88;3.30;;;17.20;67.20;;;;;;5063931;28;20067;-76
2022/05/27 06:24:10;;;;;;;7.75;2.38;;;17.40;67.00;;;;;;5061677;28;20035;-75
2022/05/27 06:26:38;;;;;;;8.18;2.25;;;17.60;66.90;;;;;;5065645;28;20570;-75
2022/05/27 06:34:34;;;;;;;6.22;3.20;;;19.30;65.80;;;;;;5070871;28;20032;-76
2022/05/27 06:37:04;;;;;;;8.23;2.35;;;20.00;64.90;;;;;;5068053;28;20036;-76
2022/05/27 06:39:32;;;;;;;9.13;2.72;;;20.60;64.20;;;;;;5066532;28;20045;-76
2022/05/27 06:41:59;;;;;;;5.88;2.38;;;21.10;63.50;;;;;;5047491;28;20040;-75
2022/05/27 06:44:31;;;;;;;6.18;2.55;;;21.70;63.20;;;;;;5055394;28;20081;-75
2022/05/27 06:46:57;;;;;;;9.85;3.63;;;22.20;62.60;;;;;;5068795;28;20513;-75
2022/05/27 06:49:23;;;;;;;8.60;3.35;;;22.70;62.10;;;;;;5059758;28;20033;-75
2022/05/27 06:51:50;;;;;;;5.38;2.20;;;23.30;61.90;;;;;;5068788;28;20081;-74
2022/05/27 06:54:17;;;;;;;6.88;2.10;;;23.80;61.60;;;;;;5050466;28;20092;-75
2022/05/27 06:56:44;;;;;;;6.82;2.20;;;24.20;61.00;;;;;;5068219;28;20278;-76
2022/05/27 06:59:12;;;;;;;6.70;2.78;;;24.70;60.60;;;;;;5075561;28;20045;-76
2022/05/27 07:01:38;;;;;;;5.32;2.33;;;25.20;60.20;;;;;;5076729;28;20032;-76
2022/05/27 07:04:05;;;;;;;6.35;2.72;;;25.60;59.20;;;;;;5075282;28;20095;-76
2022/05/27 07:06:37;;;;;;;8.57;2.38;;;26.00;58.40;;;;;;5076761;28;20032;-76
2022/05/27 07:09:05;;;;;;;7.05;2.55;;;26.40;57.10;;;;;;5087351;28;20023;-77
2022/05/27 07:11:31;;;;;;;7.78;1.90;;;26.70;56.80;;;;;;5092221;28;20025;-76
2022/05/27 07:13:57;;;;;;;11.88;3.33;;;27.20;56.00;;;;;;5093299;28;20029;-76
2022/05/27 07:16:23;;;;;;;5.47;2.42;;;27.40;55.20;;;;;;5083976;28;20045;-76
2022/05/27 07:18:49;;;;;;;5.45;2.38;;;27.90;54.30;;;;;;5078747;28;20025;-76
2022/05/27 07:21:15;;;;;;;6.57;2.38;;;28.50;53.40;;;;;;5085727;28;20086;-75
2022/05/27 07:23:41;;;;;;;6.38;2.53;;;29.00;52.40;;;;;;5087961;28;20021;-76
2022/05/27 07:26:07;;;;;;;5.72;2.78;;;29.30;51.80;;;;;;5068676;28;20028;-75
2022/05/27 07:28:32;;;;;;;4.35;2.17;;;29.50;51.50;;;;;;5067186;28;20035;-74
2022/05/27 07:31:01;;;;;;;5.22;2.28;;;29.60;51.40;;;;;;5067533;28;20119;-76
2022/05/27 07:33:28;;;;;;;2.95;1.60;;;29.70;51.20;;;;;;5077221;28;20101;-74
2022/05/27 07:35:54;;;;;;;5.53;2.17;;;29.90;51.10;;;;;;5065144;28;20036;-75
2022/05/27 07:38:20;;;;;;;7.38;2.85;;;30.20;50.50;;;;;;5055127;28;20036;-75
2022/05/27 07:40:45;;;;;;;5.72;2.35;;;30.60;49.60;;;;;;5065302;28;20044;-75
2022/05/27 07:43:12;;;;;;;7.10;2.38;;;31.10;48.50;;;;;;5058878;28;20020;-76
2022/05/27 07:45:41;;;;;;;6.00;2.55;;;31.60;47.60;;;;;;5060913;28;20031;-76
2022/05/27 07:48:08;;;;;;;4.05;1.98;;;32.00;46.70;;;;;;5065591;28;20028;-73
2022/05/27 07:50:34;;;;;;;7.38;2.88;;;32.20;46.00;;;;;;5065255;28;20025;-75
2022/05/27 07:53:00;;;;;;;4.95;2.50;;;32.20;45.90;;;;;;5064722;28;20037;-74
2022/05/27 07:55:27;;;;;;;5.47;2.47;;;32.20;45.50;;;;;;5063245;28;20032;-73
2022/05/27 07:57:53;;;;;;;5.82;2.65;;;32.10;45.70;;;;;;5064501;28;20070;-75
2022/05/27 08:00:27;;;;;;;7.80;2.50;;;31.90;45.70;;;;;;5063670;28;20033;-75
2022/05/27 08:02:54;;;;;;;5.85;2.00;;;31.40;45.60;;;;;;5065855;28;20290;-75
2022/05/27 08:05:25;;;;;;;6.95;2.75;;;30.80;46.10;;;;;;5064984;28;20043;-73
2022/05/27 08:07:52;;;;;;;8.07;2.85;;;30.20;46.40;;;;;;5064241;28;20043;-75
2022/05/27 08:10:23;;;;;;;8.88;2.55;;;29.70;46.80;;;;;;5057999;28;20026;-75
2022/05/27 08:12:49;;;;;;;5.13;2.47;;;29.20;47.10;;;;;;5073221;28;20072;-75
2022/05/27 08:15:16;;;;;;;5.97;2.30;;;28.80;47.60;;;;;;5065599;28;20032;-76
2022/05/27 08:17:41;;;;;;;6.55;2.58;;;28.60;47.80;;;;;;5059394;28;20021;-77
2022/05/27 08:20:11;;;;;;;4.85;2.30;;;28.40;48.00;;;;;;5065718;28;20047;-74
2022/05/27 08:22:37;;;;;;;6.38;2.80;;;28.20;48.20;;;;;;5064723;28;20035;-75
2022/05/27 08:25:04;;;;;;;4.95;2.40;;;28.20;48.30;;;;;;5064838;28;20494;-75
2022/05/27 08:27:30;;;;;;;8.57;3.05;;;28.20;48.30;;;;;;5066679;28;20415;-75
2022/05/27 08:29:56;;;;;;;6.22;2.25;;;28.10;48.30;;;;;;5064082;28;20032;-75
2022/05/27 08:32:21;;;;;;;7.47;2.08;;;28.00;48.40;;;;;;5060766;28;20638;-75
2022/05/27 08:40:56;;;;;;;6.95;2.30;;;28.00;49.00;;;;;;5064818;28;20074;-75
2022/05/27 08:43:50;;;;;;;5.22;2.25;;;28.00;47.90;;;;;;5054147;28;20521;-76
2022/05/27 08:46:51;;;;;;;6.60;2.75;;;28.10;48.00;;;;;;5063561;28;20063;-75
2022/05/27 08:49:24;;;;;;;5.30;2.30;;;28.30;47.60;;;;;;5047441;28;20033;-74
2022/05/27 08:52:01;;;;;;;7.45;2.90;;;28.60;47.50;;;;;;5047824;28;20800;-75
2022/05/27 08:54:37;;;;;;;5.28;2.30;;;28.80;46.90;;;;;;5059369;28;20454;-74
2022/05/27 09:00:14;;;;;;;5.57;2.10;;;29.10;46.10;;;;;;5062472;28;20043;-75
2022/05/27 09:02:55;;;;;;;4.78;2.60;;;29.20;45.50;;;;;;5051372;28;20029;-74
2022/05/27 09:05:40;;;;;;;8.50;3.13;;;29.30;45.40;;;;;;5062896;28;20046;-73
2022/05/27 09:08:19;;;;;;;5.22;1.98;;;29.30;45.10;;;;;;5064990;28;20094;-76
2022/05/27 09:10:57;;;;;;;7.60;2.75;;;29.10;45.10;;;;;;5050562;28;20038;-73
2022/05/27 09:13:37;;;;;;;7.95;2.75;;;28.80;45.30;;;;;;5070566;28;20353;-74
2022/05/27 09:16:21;;;;;;;4.72;2.42;;;28.50;45.30;;;;;;5055524;28;20090;-75
2022/05/27 09:18:52;;;;;;;7.72;2.63;;;28.20;45.60;;;;;;5063001;28;20029;-74
2022/05/27 09:21:37;;;;;;;7.25;1.95;;;28.20;46.00;;;;;;5057722;28;20044;-73
2022/05/27 09:24:33;;;;;;;9.15;2.75;;;28.20;45.90;;;;;;5062199;28;20029;-74
2022/05/27 09:27:26;;;;;;;6.45;2.40;;;28.20;45.40;;;;;;5050992;28;20098;-75
2022/05/27 09:30:04;;;;;;;5.28;2.28;;;28.30;45.40;;;;;;5063669;28;20687;-75
2022/05/27 09:32:51;;;;;;;6.45;2.22;;;28.40;45.20;;;;;;5075398;28;20328;-74
2022/05/27 09:35:44;;;;;;;6.85;2.47;;;28.60;44.80;;;;;;5051858;28;20124;-73
2022/05/27 09:38:24;;;;;;;8.82;2.45;;;28.80;44.40;;;;;;5063773;28;20036;-75
2022/05/27 09:41:01;;;;;;;8.02;2.75;;;29.00;44.30;;;;;;5060616;28;20028;-75
2022/05/27 09:43:36;;;;;;;6.00;2.83;;;29.10;44.10;;;;;;5060709;28;20514;-75
2022/05/27 09:46:06;;;;;;;7.25;3.03;;;29.20;43.90;;;;;;5058787;28;20029;-75
2022/05/27 09:48:32;;;;;;;8.75;2.58;;;29.30;43.70;;;;;;5041394;28;20056;-75
2022/05/27 09:51:01;;;;;;;4.82;2.33;;;29.50;43.50;;;;;;5058494;28;20032;-74
2022/05/27 09:53:32;;;;;;;7.32;2.42;;;29.60;43.20;;;;;;5058909;28;20588;-74
2022/05/27 09:56:08;;;;;;;7.35;2.60;;;29.80;43.10;;;;;;5062474;28;20227;-75
2022/05/27 09:58:37;;;;;;;6.30;2.72;;;29.90;42.60;;;;;;5060632;28;20068;-75
2022/05/27 10:01:18;;;;;;;5.47;2.38;;;30.00;42.50;;;;;;5063651;28;20128;-76
2022/05/27 10:03:44;;;;;;;7.65;2.30;;;30.00;42.40;;;;;;5060034;28;20032;-79
2022/05/27 10:06:16;;;;;;;6.18;2.25;;;30.00;42.40;;;;;;5058321;28;20127;-76
2022/05/27 10:08:54;;;;;;;6.20;3.03;;;30.10;42.20;;;;;;5061297;28;20047;-76
2022/05/27 10:11:25;;;;;;;6.38;2.60;;;30.30;42.00;;;;;;5063427;28;20459;-76
2022/05/27 10:14:06;;;;;;;6.18;2.15;;;30.50;42.00;;;;;;5061851;28;20064;-74
2022/05/27 10:16:33;;;;;;;7.18;2.60;;;30.60;41.40;;;;;;5063382;28;20045;-75
2022/05/27 10:19:23;;;;;;;7.85;2.75;;;30.80;41.60;;;;;;5059706;28;20039;-75
2022/05/27 10:22:17;;;;;;;6.00;2.35;;;30.90;41.20;;;;;;5060987;28;20041;-75
2022/05/27 10:24:44;;;;;;;6.30;2.28;;;31.00;41.40;;;;;;5047260;28;20429;-75
2022/05/27 10:27:16;;;;;;;6.85;2.30;;;31.10;41.60;;;;;;5061426;28;20032;-75
2022/05/27 10:29:56;;;;;;;5.40;2.85;;;31.30;41.50;;;;;;5059234;28;20502;-75
2022/05/27 10:32:33;;;;;;;7.03;2.75;;;31.40;41.50;;;;;;5054692;28;20060;-75
2022/05/27 10:35:06;;;;;;;5.28;2.42;;;31.50;41.20;;;;;;5056696;28;20122;-75
2022/05/27 10:37:33;;;;;;;5.38;2.08;;;31.60;41.20;;;;;;5061597;28;20037;-75
2022/05/27 10:40:36;;;;;;;6.55;2.47;;;31.70;41.30;;;;;;5058118;28;20059;-76
2022/05/27 10:43:42;;;;;;;8.93;3.45;;;31.70;41.00;;;;;;5064574;28;20028;-76
2022/05/27 10:46:15;;;;;;;4.57;2.30;;;31.80;40.80;;;;;;5052887;28;20041;-74
2022/05/27 10:48:43;;;;;;;8.38;2.80;;;31.90;41.10;;;;;;5060990;28;20033;-74
2022/05/27 10:51:38;;;;;;;4.80;2.42;;;32.00;41.10;;;;;;5063146;28;20044;-75
2022/05/27 10:54:11;;;;;;;5.25;1.83;;;31.90;40.90;;;;;;5064430;28;20035;-74
2022/05/27 11:03:25;;;;;;;5.63;2.38;;;31.80;40.80;;;;;;5055703;28;20029;-73
2022/05/27 11:06:13;;;;;;;5.45;2.20;;;31.90;41.00;;;;;;5065369;28;20040;-73
2022/05/27 11:08:47;;;;;;;4.10;2.30;;;31.90;40.70;;;;;;5065415;28;20063;-72
2022/05/27 11:11:22;;;;;;;6.35;3.00;;;32.00;40.80;;;;;;5062967;28;20453;-73
2022/05/27 11:17:21;;;;;;;7.38;2.22;;;32.20;40.50;;;;;;5069045;28;20028;-72
2022/05/27 11:19:53;;;;;;;4.03;2.03;;;32.30;40.80;;;;;;5063693;28;20043;-72
2022/05/27 11:22:26;;;;;;;4.35;2.03;;;32.30;40.10;;;;;;5067808;28;20135;-72
2022/05/27 11:25:22;;;;;;;5.57;2.30;;;32.40;40.20;;;;;;5066614;28;20059;-73
2022/05/27 11:27:51;;;;;;;7.55;2.65;;;32.50;39.90;;;;;;5062582;28;20101;-74
2022/05/27 11:30:28;;;;;;;5.88;2.00;;;32.60;39.80;;;;;;5064775;28;20029;-71
2022/05/27 11:33:09;;;;;;;3.80;2.28;;;32.60;39.60;;;;;;5079979;28;20105;-72
2022/05/27 11:35:44;;;;;;;5.95;2.45;;;32.70;39.50;;;;;;5059275;28;20396;-71
2022/05/27 11:38:25;;;;;;;7.10;2.05;;;32.70;39.20;;;;;;5065507;28;20028;-72
2022/05/27 11:41:03;;;;;;;4.85;2.35;;;32.80;39.20;;;;;;5061537;28;20048;-71
2022/05/27 11:43:55;;;;;;;4.93;2.45;;;32.90;39.20;;;;;;5066856;28;20070;-71
2022/05/27 11:46:39;;;;;;;4.50;2.35;;;32.90;39.00;;;;;;5067588;28;20036;-72
2022/05/27 11:49:23;;;;;;;4.72;2.08;;;33.00;38.90;;;;;;5064983;28;20460;-72
2022/05/27 11:52:21;;;;;;;5.97;2.47;;;33.10;39.00;;;;;;5067613;28;20273;-72
2022/05/27 11:54:54;;;;;;;4.28;2.40;;;33.10;38.80;;;;;;5026942;28;20514;-72
2022/05/27 11:57:27;;;;;;;6.32;2.50;;;33.20;38.90;;;;;;5062390;28;20072;-72
2022/05/27 12:00:07;;;;;;;3.20;1.52;;;33.30;39.10;;;;;;5056709;28;20033;-72
2022/05/27 12:03:15;;;;;;;4.65;2.13;;;33.30;38.90;;;;;;5055245;28;20063;-72
2022/05/27 12:05:56;;;;;;;3.63;2.00;;;33.40;38.80;;;;;;5064719;28;20111;-72
2022/05/27 12:08:45;;;;;;;5.32;2.13;;;33.40;38.80;;;;;;5063152;28;20033;-72
2022/05/27 12:11:43;;;;;;;4.75;2.20;;;33.40;38.40;;;;;;5058244;28;20131;-72
2022/05/27 12:14:18;;;;;;;7.57;2.67;;;33.40;38.20;;;;;;5064236;28;20067;-73
2022/05/27 12:16:48;;;;;;;4.05;2.10;;;33.50;38.30;;;;;;5063627;28;20043;-73
2022/05/27 12:19:36;;;;;;;5.70;1.90;;;33.60;38.20;;;;;;5057915;28;20556;-71
2022/05/27 12:22:21;;;;;;;5.63;2.20;;;33.60;38.00;;;;;;5064298;28;20442;-72
2022/05/27 12:25:02;;;;;;;4.63;2.05;;;33.70;37.90;;;;;;5063906;28;20025;-73
2022/05/27 12:27:28;;;;;;;5.30;2.38;;;33.80;37.70;;;;;;5067329;28;20129;-73
2022/05/27 12:29:55;;;;;;;5.20;2.50;;;33.90;37.90;;;;;;5060756;28;20028;-73
2022/05/27 12:32:25;;;;;;;5.97;2.17;;;33.90;37.90;;;;;;5066195;28;20032;-73
2022/05/27 12:35:13;;;;;;;5.07;1.77;;;34.00;37.90;;;;;;5065700;28;20036;-74
2022/05/27 12:37:48;;;;;;;4.70;2.05;;;34.10;38.00;;;;;;5062159;28;20033;-77
2022/05/27 12:40:32;;;;;;;5.72;2.13;;;34.20;37.80;;;;;;5066156;28;20075;-75
2022/05/27 12:43:22;;;;;;;4.18;2.00;;;34.30;37.80;;;;;;5050209;28;20028;-77
2022/05/27 12:46:02;;;;;;;6.55;2.22;;;34.40;37.70;;;;;;5062659;28;20044;-75
2022/05/27 12:48:38;;;;;;;4.80;1.80;;;34.50;37.80;;;;;;5066635;28;20066;-74
2022/05/27 12:51:09;;;;;;;6.82;2.13;;;34.60;37.70;;;;;;5064489;28;20039;-76
2022/05/27 12:53:50;;;;;;;5.20;1.60;;;34.70;37.60;;;;;;5059230;28;20332;-74
2022/05/27 13:02:14;;;;;;;5.65;2.25;;;35.00;37.40;;;;;;5063374;28;20037;-74
2022/05/27 13:04:53;;;;;;;3.40;1.98;;;35.10;37.50;;;;;;5065252;28;20297;-75
2022/05/27 13:07:24;;;;;;;6.53;2.53;;;35.20;37.40;;;;;;5057339;28;20352;-93
2022/05/27 13:09:50;;;;;;;10.98;3.00;;;35.30;36.60;;;;;;5057568;28;20586;-88
2022/05/27 13:12:53;;;;;;;7.78;2.95;;;35.10;35.60;;;;;;5054786;28;20032;-74
2022/05/27 13:15:31;;;;;;;;;;;34.60;34.80;;;;;;5064217;28;20086;-75
2022/05/27 13:18:25;;;;;;;8.10;2.97;;;34.30;36.00;;;;;;5056722;28;19912;-75
2022/05/27 13:21:18;;;;;;;6.35;2.17;;;34.20;35.60;;;;;;5054437;28;20410;-74
2022/05/27 13:23:59;;;;;;;;;;;34.30;35.60;;;;;;5055763;28;20507;-75
2022/05/27 13:26:46;;;;;;;7.22;2.70;;;34.50;35.90;;;;;;5064506;28;19995;-75
2022/05/27 13:29:33;;;;;;;5.80;2.50;;;34.70;35.70;;;;;;5055766;28;20048;-75
2022/05/27 13:32:16;;;;;;;6.88;2.70;;;34.90;35.50;;;;;;5064452;28;20033;-75
2022/05/27 13:34:51;;;;;;;6.03;2.28;;;35.20;35.30;;;;;;5064479;28;20058;-75
2022/05/27 13:37:23;;;;;;;9.07;3.55;;;35.40;35.40;;;;;;5059889;28;20397;-75
2022/05/27 13:40:10;;;;;;;4.97;2.20;;;35.60;35.20;;;;;;5059739;28;20510;-75
2022/05/27 13:42:43;;;;;;;5.93;2.28;;;35.80;34.90;;;;;;5058569;28;20028;-75
2022/05/27 13:45:22;;;;;;;7.90;2.22;;;36.00;34.90;;;;;;5054909;28;20065;-74
2022/05/27 13:48:03;;;;;;;7.10;3.15;;;36.20;34.90;;;;;;5055961;28;20066;-77
2022/05/27 13:50:39;;;;;;;4.03;1.92;;;36.40;34.70;;;;;;5065310;28;20036;-78
2022/05/27 13:53:27;;;;;;;5.38;2.00;;;36.50;34.70;;;;;;5061608;28;20024;-77
2022/05/27 13:56:04;;;;;;;7.45;2.55;;;36.70;34.80;;;;;;5062346;28;20059;-76